Time;durP1;ratioP1;P1;durP2;ratioP2;P2;SDS_P1;SDS_P2;PMS_P1;PMS_P2;Temp;Humidity;BMP_temperature;BMP_pressure;BME280_temperature;BME280_humidity;BME280_pressure;Samples;Min_cycle;Max_cycle;Signal;HPM_P1;HPM_P2
2022/04/20 00:02:16;;;;;;;7.73;4.83;;;;;;;2.43;100.00;96263.50;5019217;28;20472;-75
2022/04/20 00:04:43;;;;;;;9.97;5.27;;;;;;;2.13;100.00;96226.19;5042052;28;20466;-75
2022/04/20 00:07:10;;;;;;;5.77;5.17;;;;;;;2.39;100.00;96260.66;5031741;28;21005;-75
2022/04/20 00:09:38;;;;;;;8.13;5.30;;;;;;;1.99;100.00;96157.47;5022948;28;20479;-75
2022/04/20 00:12:05;;;;;;;6.20;5.00;;;;;;;2.72;100.00;96256.41;5034345;28;20424;-75
2022/04/20 00:14:32;;;;;;;6.77;5.30;;;;;;;2.53;100.00;96258.16;5030210;28;20809;-75
2022/04/20 00:16:59;;;;;;;5.23;4.63;;;;;;;2.31;100.00;96259.44;5027356;28;20431;-75
2022/04/20 00:19:26;;;;;;;6.73;5.10;;;;;;;2.16;100.00;96266.59;5039345;28;20448;-75
2022/04/20 00:21:52;;;;;;;8.37;5.30;;;;;;;2.13;100.00;96264.53;5036587;28;20442;-75
2022/04/20 00:24:19;;;;;;;5.30;4.60;;;;;;;1.18;100.00;96127.66;5049695;28;20950;-75
2022/04/20 00:26:46;;;;;;;7.43;4.87;;;;;;;1.86;100.00;96226.66;5033455;28;20490;-75
2022/04/20 00:29:13;;;;;;;5.67;4.67;;;;;;;1.51;100.00;96219.13;5029582;28;20512;-75
2022/04/20 00:31:39;;;;;;;7.63;4.60;;;;;;;1.34;100.00;96206.47;5029859;28;20427;-75
2022/04/20 00:34:06;;;;;;;5.30;3.90;;;;;;;1.46;100.00;96222.53;5040154;28;20435;-75
2022/04/20 00:36:33;;;;;;;8.40;4.70;;;;;;;1.85;100.00;96263.44;5036247;28;20467;-75
2022/04/20 00:39:00;;;;;;;6.50;5.00;;;;;;;1.91;100.00;96257.16;5039611;28;20551;-75
2022/04/20 00:41:27;;;;;;;6.17;5.27;;;;;;;1.87;100.00;96264.75;5030353;28;20446;-75
2022/04/20 00:43:54;;;;;;;5.33;4.80;;;;;;;1.67;100.00;96246.63;5022729;28;21133;-75
2022/04/20 00:46:23;;;;;;;6.03;4.93;;;;;;;1.76;100.00;96243.19;5042928;28;20951;-75
2022/04/20 00:48:51;;;;;;;5.10;4.63;;;;;;;1.96;100.00;96272.75;5041864;28;21024;-75
2022/04/20 00:51:19;;;;;;;5.03;4.53;;;;;;;1.23;100.00;96268.25;5031946;28;20439;-75
2022/04/20 00:53:48;;;;;;;6.57;5.60;;;;;;;1.06;100.00;96263.34;5030823;28;20458;-75
2022/04/20 00:56:16;;;;;;;6.97;6.37;;;;;;;0.97;100.00;96264.97;5027403;28;20470;-75
2022/04/20 00:58:44;;;;;;;5.50;4.47;;;;;;;0.83;100.00;96230.13;5026274;28;20596;-75
2022/04/20 01:01:11;;;;;;;6.70;4.00;;;;;;;0.92;100.00;96232.94;5047660;28;20862;-75
2022/04/20 01:03:38;;;;;;;4.50;4.00;;;;;;;1.07;100.00;96269.31;5032230;28;20481;-75
2022/04/20 01:06:37;;;;;;;5.50;4.93;;;;;;;0.75;100.00;96238.47;5023645;28;20965;-75
2022/04/20 01:09:11;;;;;;;4.80;4.40;;;;;;;0.39;100.00;96193.59;5026171;28;20466;-75
2022/04/20 01:11:49;;;;;;;8.20;5.10;;;;;;;0.50;100.00;96239.31;5053376;28;20430;-75
2022/04/20 01:14:36;;;;;;;7.03;5.20;;;;;;;0.50;100.00;96254.94;5034709;28;20447;-75
2022/04/20 01:17:12;;;;;;;7.03;6.40;;;;;;;0.22;100.00;96230.28;5048638;28;20434;-75
2022/04/20 01:19:54;;;;;;;5.70;5.03;;;;;;;0.61;100.00;96261.69;5045941;28;21002;-75
2022/04/20 01:22:35;;;;;;;4.30;4.00;;;;;;;0.32;100.00;96247.69;5042064;28;20521;-75
2022/04/20 01:25:23;;;;;;;4.57;3.70;;;;;;;0.07;100.00;96225.09;5047243;28;20552;-75
2022/04/20 01:28:17;;;;;;;4.97;4.47;;;;;;;0.44;100.00;96246.38;5046308;28;20459;-75
2022/04/20 01:31:04;;;;;;;5.13;4.63;;;;;;;0.29;100.00;96267.19;5037177;28;20793;-75
2022/04/20 01:33:39;;;;;;;8.77;5.10;;;;;;;0.14;100.00;96226.41;5011303;28;20438;-75
2022/04/20 01:36:06;;;;;;;6.37;4.73;;;;;;;0.44;100.00;96238.56;5042910;28;20463;-75
2022/04/20 01:38:33;;;;;;;6.07;4.40;;;;;;;0.22;100.00;96186.09;5041999;28;20479;-75
2022/04/20 01:41:00;;;;;;;4.43;4.03;;;;;;;0.48;100.00;96218.00;5022272;28;20435;-75
2022/04/20 01:43:26;;;;;;;5.90;4.83;;;;;;;0.87;100.00;96265.75;5039862;28;20966;-75
2022/04/20 01:46:16;;;;;;;5.60;4.53;;;;;;;0.83;100.00;96266.56;5035586;28;20501;-75
2022/04/20 01:49:03;;;;;;;5.33;4.43;;;;;;;0.30;100.00;96247.97;5048975;28;20489;-75
2022/04/20 01:51:50;;;;;;;5.37;4.37;;;;;;;0.89;100.00;96268.88;5042523;28;20431;-75
2022/04/20 01:54:35;;;;;;;8.43;4.67;;;;;;;0.67;100.00;96263.25;5048506;28;20480;-75
2022/04/20 01:57:20;;;;;;;4.03;3.73;;;;;;;0.51;100.00;96261.69;5046097;28;20418;-75
2022/04/20 02:00:13;;;;;;;5.43;4.50;;;;;;;0.57;100.00;96253.63;5044431;28;20454;-75
2022/04/20 02:02:40;;;;;;;5.00;3.90;;;;;;;0.82;100.00;96267.63;5040948;28;20430;-75
2022/04/20 02:05:19;;;;;;;3.60;3.30;;;;;;;0.43;100.00;96242.22;5039571;28;20511;-75
2022/04/20 02:07:49;;;;;;;6.27;3.40;;;;;;;0.09;100.00;96225.63;5055537;28;20435;-75
2022/04/20 02:10:21;;;;;;;5.20;3.73;;;;;;;0.22;100.00;96264.06;5047118;28;20464;-75
2022/04/20 02:12:48;;;;;;;3.73;3.40;;;;;;;0.09;100.00;96241.22;5031192;28;20478;-75
2022/04/20 02:15:29;;;;;;;7.83;3.30;;;;;;;-0.26;100.00;96223.81;5049037;28;20466;-75
2022/04/20 02:17:59;;;;;;;5.07;3.07;;;;;;;-0.39;100.00;96230.31;5045334;28;20419;-75
2022/04/20 02:20:48;;;;;;;7.20;3.03;;;;;;;-0.13;100.00;96234.47;5028960;28;21005;-75
2022/04/20 02:23:15;;;;;;;6.83;3.53;;;;;;;-0.12;100.00;96251.63;5052824;28;20809;-75
2022/04/20 02:25:43;;;;;;;4.03;3.30;;;;;;;0.12;100.00;96248.47;5036083;28;20434;-75
2022/04/20 02:28:10;;;;;;;5.77;5.17;;;;;;;0.15;100.00;96243.56;5038949;28;20509;-75
2022/04/20 02:30:37;;;;;;;3.53;3.23;;;;;;;0.40;100.00;96258.34;5043477;28;20459;-75
2022/04/20 02:33:04;;;;;;;4.93;3.80;;;;;;;-0.01;100.00;96234.97;5045452;28;21128;-75
2022/04/20 02:35:31;;;;;;;4.57;4.17;;;;;;;-0.08;100.00;96237.06;5024475;28;20459;-75
2022/04/20 02:38:01;;;;;;;3.50;3.20;;;;;;;-0.06;100.00;96257.59;5019575;28;20438;-75
2022/04/20 02:40:29;;;;;;;4.30;3.80;;;;;;;0.00;100.00;96235.78;5032024;28;20479;-75
2022/04/20 02:42:57;;;;;;;8.17;4.00;;;;;;;0.16;100.00;96239.13;5033548;28;20435;-75
2022/04/20 02:45:23;;;;;;;4.33;4.03;;;;;;;0.24;100.00;96241.97;5032672;28;20423;-75
2022/04/20 02:47:50;;;;;;;4.20;3.90;;;;;;;-0.07;100.00;96228.22;5039516;28;20485;-75
2022/04/20 02:50:17;;;;;;;2.80;2.60;;;;;;;-0.01;100.00;96258.34;5054398;28;20574;-76
2022/04/20 02:52:44;;;;;;;4.37;3.97;;;;;;;-0.04;100.00;96253.69;5022398;28;20450;-74
2022/04/20 02:55:10;;;;;;;4.10;3.80;;;;;;;-0.05;100.00;96239.13;5031870;28;20463;-75
2022/04/20 02:57:38;;;;;;;3.50;2.83;;;;;;;0.11;100.00;96271.09;5035153;28;20450;-75
2022/04/20 03:00:05;;;;;;;4.77;4.23;;;;;;;-0.41;100.00;96240.94;5051564;28;21052;-75
2022/04/20 03:02:38;;;;;;;5.20;4.30;;;;;;;-0.27;100.00;96259.38;5038469;28;20437;-75
2022/04/20 03:05:05;;;;;;;4.43;4.00;;;;;;;-0.12;100.00;96245.66;5040190;28;20534;-75
2022/04/20 03:07:32;;;;;;;10.13;4.57;;;;;;;0.03;100.00;96227.44;5049585;28;20526;-75
2022/04/20 03:09:58;;;;;;;3.80;3.57;;;;;;;-0.17;100.00;96228.22;5019290;28;20473;-75
2022/04/20 03:12:32;;;;;;;4.00;3.70;;;;;;;-0.45;100.00;96247.69;5012082;28;20985;-75
2022/04/20 03:14:59;;;;;;;8.40;4.00;;;;;;;-0.48;100.00;96250.03;5044546;28;20537;-75
2022/04/20 03:17:26;;;;;;;6.63;4.37;;;;;;;-0.05;100.00;96248.75;5034685;28;20519;-75
2022/04/20 03:19:53;;;;;;;4.80;4.07;;;;;;;-0.20;100.00;96226.16;5052155;28;20443;-75
2022/04/20 03:22:21;;;;;;;4.60;4.13;;;;;;;-0.30;100.00;96197.56;5043724;28;20427;-75
2022/04/20 03:24:49;;;;;;;3.80;3.50;;;;;;;-0.24;100.00;96253.69;5030805;28;20439;-75
2022/04/20 03:27:31;;;;;;;3.70;3.40;;;;;;;-0.34;100.00;96245.88;5030856;28;20585;-75
2022/04/20 03:30:01;;;;;;;8.67;4.20;;;;;;;-0.21;100.00;96253.16;5030590;28;20498;-75
2022/04/20 03:32:28;;;;;;;3.60;3.30;;;;;;;-0.29;100.00;96219.91;5014414;28;20439;-75
2022/04/20 03:34:55;;;;;;;3.83;3.53;;;;;;;-0.12;100.00;96243.06;5030816;28;20446;-75
2022/04/20 03:37:21;;;;;;;5.40;3.40;;;;;;;0.02;100.00;96264.88;5024914;28;20459;-75
2022/04/20 03:39:48;;;;;;;4.00;3.60;;;;;;;-0.69;100.00;96244.78;5033413;28;21061;-75
2022/04/20 03:42:15;;;;;;;4.70;3.43;;;;;;;-0.70;100.00;96250.22;5040820;28;20537;-75
2022/04/20 03:44:42;;;;;;;3.90;3.60;;;;;;;-0.80;100.00;96222.44;5033362;28;20494;-75
2022/04/20 03:47:09;;;;;;;5.73;4.07;;;;;;;-0.79;100.00;96224.00;5030706;28;20977;-75
2022/04/20 03:49:36;;;;;;;4.27;3.87;;;;;;;-0.23;100.00;96263.03;5050435;28;20461;-75
2022/04/20 03:52:06;;;;;;;6.43;4.03;;;;;;;-0.39;100.00;96228.50;5034167;28;20471;-75
2022/04/20 03:54:37;;;;;;;5.47;3.50;;;;;;;-0.13;100.00;96254.47;5045035;28;20446;-75
2022/04/20 03:57:05;;;;;;;5.03;4.60;;;;;;;-0.51;100.00;96214.97;5014016;28;20490;-75
2022/04/20 03:59:39;;;;;;;7.40;4.40;;;;;;;-0.98;100.00;96259.22;5014770;28;20975;-75
2022/04/20 04:02:07;;;;;;;4.20;3.53;;;;;;;-1.10;100.00;96217.16;5031020;28;20443;-75
2022/04/20 04:04:41;;;;;;;4.70;4.20;;;;;;;-1.20;100.00;96177.19;5025997;28;20839;-75
2022/04/20 04:07:19;;;;;;;8.70;4.70;;;;;;;-0.42;100.00;96267.16;5029995;28;20524;-75
2022/04/20 04:09:47;;;;;;;7.80;4.90;;;;;;;-0.56;100.00;96246.09;5013438;28;20570;-75
2022/04/20 04:12:14;;;;;;;5.63;4.90;;;;;;;-1.09;100.00;96229.88;5046844;28;20438;-75
2022/04/20 04:14:49;;;;;;;4.00;3.70;;;;;;;-0.85;100.00;96255.38;5034476;28;20528;-75
2022/04/20 04:17:16;;;;;;;5.17;4.53;;;;;;;-0.78;100.00;96258.53;5031420;28;20568;-75
2022/04/20 04:19:44;;;;;;;9.70;4.30;;;;;;;-1.06;100.00;96220.81;5025766;28;20464;-75
2022/04/20 04:22:12;;;;;;;11.30;4.80;;;;;;;-1.00;100.00;96227.56;5036766;28;20447;-75
2022/04/20 04:24:46;;;;;;;9.27;5.20;;;;;;;-0.84;100.00;96233.59;5036788;28;20995;-75
2022/04/20 04:27:16;;;;;;;7.87;6.87;;;;;;;-0.85;100.00;96225.00;5030200;28;20526;-75
2022/04/20 04:29:44;;;;;;;5.20;4.77;;;;;;;-0.45;100.00;96273.66;5030247;28;20455;-74
2022/04/20 04:32:12;;;;;;;5.80;5.30;;;;;;;-0.45;100.00;96278.06;5042228;28;20436;-74
2022/04/20 04:34:40;;;;;;;5.67;5.17;;;;;;;-0.52;100.00;96274.94;5042740;28;20804;-74
2022/04/20 04:37:14;;;;;;;6.00;5.33;;;;;;;-0.59;100.00;96246.63;5037538;28;20461;-74
2022/04/20 04:39:42;;;;;;;4.80;4.20;;;;;;;-0.59;100.00;96246.63;5033751;28;20481;-74
2022/04/20 04:42:10;;;;;;;5.07;4.67;;;;;;;-0.63;100.00;96227.41;5029787;28;20518;-74
2022/04/20 04:44:37;;;;;;;6.43;4.60;;;;;;;-0.80;100.00;96219.84;5043029;28;20443;-74
2022/04/20 04:50:03;;;;;;;6.10;5.50;;;;;;;-0.32;100.00;96267.19;5024620;28;20461;-74
2022/04/20 04:52:31;;;;;;;4.67;4.23;;;;;;;-0.36;100.00;96253.94;5018693;28;20451;-75
2022/04/20 04:55:03;;;;;;;7.80;6.23;;;;;;;-0.35;100.00;96246.94;5030495;28;20504;-75
2022/04/20 04:57:33;;;;;;;5.87;5.47;;;;;;;-0.55;100.00;96232.09;5029835;28;20475;-74
2022/04/20 05:00:01;;;;;;;7.90;6.20;;;;;;;-0.13;100.00;96273.44;5039306;28;20457;-74
2022/04/20 05:02:31;;;;;;;5.90;5.20;;;;;;;-0.35;100.00;96258.09;5032205;28;20447;-74
2022/04/20 05:04:58;;;;;;;8.17;6.40;;;;;;;-0.53;100.00;96258.59;5039821;28;20920;-74
2022/04/20 05:07:29;;;;;;;8.23;5.63;;;;;;;-0.80;100.00;96253.59;5031339;28;20471;-74
2022/04/20 05:10:00;;;;;;;8.00;6.30;;;;;;;-0.84;100.00;96244.75;5029209;28;20516;-74
2022/04/20 05:12:33;;;;;;;8.80;5.77;;;;;;;-0.25;100.00;96279.94;5029301;28;20493;-74
2022/04/20 05:15:01;;;;;;;6.50;5.90;;;;;;;-0.12;100.00;96259.41;5042605;28;20451;-74
2022/04/20 05:17:28;;;;;;;6.00;5.40;;;;;;;0.26;100.00;96260.69;5019561;28;20457;-74
2022/04/20 05:19:55;;;;;;;9.47;5.23;;;;;;;0.36;100.00;96272.13;5035942;28;21117;-74
2022/04/20 05:22:23;;;;;;;6.50;4.93;;;;;;;0.37;100.00;96258.84;5042247;28;20439;-74
2022/04/20 05:24:51;;;;;;;8.30;6.20;;;;;;;0.65;100.00;96293.13;5042929;28;20479;-74
2022/04/20 05:27:18;;;;;;;16.47;10.83;;;;;;;0.85;100.00;96304.28;5029439;28;20954;-74
2022/04/20 05:30:03;;;;;;;14.73;9.20;;;;;;;0.52;100.00;96297.84;5015055;28;20475;-74
2022/04/20 05:32:30;;;;;;;6.60;5.90;;;;;;;-0.20;100.00;96272.91;5019775;28;20445;-74
2022/04/20 05:35:03;;;;;;;7.63;6.13;;;;;;;-0.26;100.00;96216.81;5042749;28;20443;-74
2022/04/20 05:43:07;;;;;;;7.70;6.53;;;;;;;1.52;100.00;96304.03;5035867;28;20474;-74
2022/04/20 05:45:36;;;;;;;7.63;6.60;;;;;;;1.28;100.00;96267.44;5038220;28;20850;-74
2022/04/20 05:48:14;;;;;;;6.30;5.80;;;;;;;1.84;100.00;96299.16;5032070;28;20501;-74
2022/04/20 05:50:43;;;;;;;8.13;6.20;;;;;;;1.83;100.00;96289.78;5032929;28;20458;-74
2022/04/20 05:53:10;;;;;;;6.80;6.10;;;;;;;2.10;100.00;96304.19;5045994;28;21052;-74
2022/04/20 05:55:37;;;;;;;6.47;5.60;;;;;;;2.22;100.00;96304.63;5032572;28;20440;-74
2022/04/20 05:58:04;;;;;;;10.13;6.90;;;;;;;2.55;100.00;96306.44;5025954;28;20562;-74
2022/04/20 06:00:31;;;;;;;5.93;5.33;;;;;;;2.76;100.00;96303.63;5053457;28;20430;-74
2022/04/20 06:03:30;;;;;;;7.93;5.50;;;;;;;2.24;100.00;96273.81;5052061;28;20520;-74
2022/04/20 06:06:07;;;;;;;5.80;5.30;;;;;;;2.58;100.00;96299.88;5032936;28;20450;-74
2022/04/20 06:08:54;;;;;;;5.50;5.00;;;;;;;2.86;100.00;96306.91;5018531;28;20810;-74
2022/04/20 06:11:35;;;;;;;6.33;5.40;;;;;;;3.23;100.00;96321.16;5032150;28;20446;-75
2022/04/20 06:14:03;;;;;;;7.00;5.00;;;;;;;2.87;100.00;96300.63;5031045;28;20440;-74
2022/04/20 06:16:42;;;;;;;6.00;5.40;;;;;;;2.82;100.00;96285.03;5045655;28;20465;-75
2022/04/20 06:19:10;;;;;;;7.30;5.83;;;;;;;3.74;100.00;96315.28;5051765;28;20468;-75
2022/04/20 06:21:44;;;;;;;7.30;6.57;;;;;;;3.86;100.00;96299.94;5051774;28;20844;-74
2022/04/20 06:24:18;;;;;;;6.40;5.90;;;;;;;4.00;100.00;96307.84;5036327;28;20526;-75
2022/04/20 06:26:54;;;;;;;7.30;6.60;;;;;;;4.54;100.00;96314.34;5018452;28;20428;-74
2022/04/20 06:29:44;;;;;;;6.03;5.53;;;;;;;4.73;100.00;96296.75;5034925;28;20469;-75
2022/04/20 06:32:27;;;;;;;7.77;6.33;;;;;;;4.83;100.00;96295.78;5041338;28;20454;-74
2022/04/20 06:35:20;;;;;;;6.43;5.30;;;;;;;4.80;100.00;96306.81;5055380;28;20436;-75
2022/04/20 06:38:05;;;;;;;6.80;6.20;;;;;;;5.10;100.00;96306.28;5031831;28;20577;-74
2022/04/20 06:40:42;;;;;;;6.97;5.53;;;;;;;5.57;100.00;96306.91;5042701;28;20534;-74
2022/04/20 06:43:44;;;;;;;10.83;6.17;;;;;;;5.68;100.00;96286.50;5050178;28;20442;-74
2022/04/20 06:46:45;;;;;;;9.73;5.67;;;;;;;5.89;100.00;96298.13;5043427;28;20443;-74
2022/04/20 06:49:35;;;;;;;7.67;5.50;;;;;;;5.67;100.00;96303.31;5020544;28;20479;-74
2022/04/20 07:00:39;;;;;;;5.97;5.47;;;;;;;6.59;96.60;96262.63;5031053;28;20533;-74
2022/04/20 07:03:24;;;;;;;7.70;6.00;;;;;;;7.11;96.12;96289.91;5043465;28;20929;-74
2022/04/20 07:06:12;;;;;;;7.20;6.60;;;;;;;7.30;95.31;96298.31;5051126;28;20490;-74
2022/04/20 07:09:02;;;;;;;6.60;6.00;;;;;;;7.19;95.73;96273.34;5023387;28;20555;-74
2022/04/20 07:11:38;;;;;;;7.40;6.70;;;;;;;6.71;96.62;96249.69;5032183;28;20513;-74
2022/04/20 07:14:06;;;;;;;8.87;6.17;;;;;;;6.50;97.45;96263.34;5020024;28;20431;-75
2022/04/20 07:16:32;;;;;;;7.47;6.70;;;;;;;6.43;93.77;96283.25;5050609;28;21049;-75
2022/04/20 07:19:06;;;;;;;6.70;6.07;;;;;;;7.30;92.42;96264.13;5002218;28;20463;-74
2022/04/20 07:21:41;;;;;;;9.50;6.70;;;;;;;7.70;89.82;96272.69;5031961;28;20431;-75
2022/04/20 07:24:35;;;;;;;5.90;5.40;;;;;;;7.76;87.86;96291.75;5030015;28;20431;-74
2022/04/20 07:27:02;;;;;;;5.63;5.17;;;;;;;7.63;87.04;96253.97;5051691;28;20829;-75
2022/04/20 07:29:41;;;;;;;7.63;5.23;;;;;;;8.41;85.77;96287.41;5050320;28;20466;-75
2022/04/20 07:32:19;;;;;;;5.63;5.13;;;;;;;8.11;86.59;96260.91;5036251;28;20454;-75
2022/04/20 07:35:08;;;;;;;7.90;5.80;;;;;;;8.48;81.07;96288.47;5032226;28;20495;-75
2022/04/20 07:37:38;;;;;;;5.80;5.30;;;;;;;8.39;82.04;96294.84;5031158;28;20470;-75
2022/04/20 07:40:24;;;;;;;5.87;5.13;;;;;;;7.69;81.97;96257.97;5032618;28;20453;-75
2022/04/20 07:43:15;;;;;;;6.90;6.23;;;;;;;8.28;81.44;96260.16;5030862;28;20472;-75
2022/04/20 07:46:00;;;;;;;7.47;6.80;;;;;;;8.56;76.88;96292.97;5046727;28;20478;-74
2022/04/20 07:48:46;;;;;;;6.20;5.50;;;;;;;8.88;75.43;96285.59;5036636;28;20471;-74
2022/04/20 07:51:26;;;;;;;6.60;5.97;;;;;;;8.79;73.50;96277.69;5051920;28;20485;-74
2022/04/20 07:54:22;;;;;;;8.47;6.80;;;;;;;9.03;72.37;96268.47;5049551;28;20509;-74
2022/04/20 07:57:07;;;;;;;6.20;5.70;;;;;;;8.40;71.19;96283.22;5036391;28;20486;-74
2022/04/20 08:00:06;;;;;;;6.90;6.30;;;;;;;8.67;69.53;96274.94;5019127;28;20464;-74
2022/04/20 08:02:42;;;;;;;7.13;6.50;;;;;;;8.74;70.54;96288.41;5030354;28;20459;-74
2022/04/20 08:05:17;;;;;;;6.53;5.93;;;;;;;8.48;71.44;96287.72;5030335;28;20445;-74
2022/04/20 08:07:45;;;;;;;7.10;6.50;;;;;;;7.81;71.50;96244.22;5030636;28;20952;-74
2022/04/20 08:10:13;;;;;;;7.63;5.90;;;;;;;8.36;72.89;96271.75;5030341;28;20464;-74
2022/04/20 08:12:40;;;;;;;6.97;6.37;;;;;;;8.67;67.71;96292.63;5037250;28;20450;-74
2022/04/20 08:15:12;;;;;;;6.77;6.27;;;;;;;9.50;67.59;96287.63;5028865;28;20952;-74
2022/04/20 08:17:51;;;;;;;6.87;6.23;;;;;;;9.54;67.71;96274.56;5041913;28;20495;-74
2022/04/20 08:20:47;;;;;;;6.67;6.07;;;;;;;8.95;66.04;96253.44;5016987;28;20520;-74
2022/04/20 08:23:14;;;;;;;7.83;6.80;;;;;;;8.71;65.56;96251.38;5030210;28;20448;-74
2022/04/20 08:25:42;;;;;;;8.23;5.23;;;;;;;8.61;63.30;96284.13;5030267;28;20487;-73
2022/04/20 08:28:10;;;;;;;8.20;6.10;;;;;;;8.78;62.42;96285.91;5030083;28;20437;-74
2022/04/20 08:30:38;;;;;;;6.13;5.50;;;;;;;9.20;60.97;96281.56;5030085;28;20444;-74
2022/04/20 08:33:07;;;;;;;5.23;4.90;;;;;;;9.81;58.41;96276.72;5013751;28;20444;-74
2022/04/20 08:35:35;;;;;;;6.53;5.17;;;;;;;9.45;57.44;96264.81;5029909;28;21047;-74
2022/04/20 08:38:05;;;;;;;5.93;5.43;;;;;;;9.72;58.01;96271.47;5029858;28;20563;-74
2022/04/20 08:40:33;;;;;;;6.43;5.03;;;;;;;9.26;56.51;96253.91;5039986;28;20526;-74
2022/04/20 08:43:02;;;;;;;5.03;4.53;;;;;;;9.29;54.50;96263.84;5049740;28;20532;-74
2022/04/20 08:45:29;;;;;;;7.00;5.23;;;;;;;8.95;55.42;96262.16;5049626;28;20482;-74
2022/04/20 08:47:57;;;;;;;6.33;5.90;;;;;;;9.10;54.27;96272.16;5049601;28;20971;-74
2022/04/20 08:50:25;;;;;;;7.23;4.60;;;;;;;10.15;54.90;96269.59;5050995;28;20479;-74
2022/04/20 08:52:55;;;;;;;5.50;5.00;;;;;;;9.19;52.51;96243.09;5051051;28;20519;-74
2022/04/20 08:55:22;;;;;;;6.23;5.63;;;;;;;9.69;52.83;96263.44;5051027;28;20456;-74
2022/04/20 08:57:52;;;;;;;6.37;5.77;;;;;;;9.31;52.34;96252.97;5050856;28;20459;-74
2022/04/20 09:00:27;;;;;;;5.87;5.00;;;;;;;9.15;51.84;96261.41;5049306;28;20464;-74
2022/04/20 09:03:00;;;;;;;6.80;5.50;;;;;;;9.40;50.30;96248.41;5029640;28;20539;-74
2022/04/20 09:05:32;;;;;;;4.83;4.47;;;;;;;9.11;51.00;96225.47;5029647;28;20474;-74
2022/04/20 09:08:10;;;;;;;4.80;4.30;;;;;;;9.05;50.71;96208.25;5029560;28;20500;-74
2022/04/20 09:10:37;;;;;;;5.17;4.27;;;;;;;9.59;51.42;96246.09;5029702;28;20443;-73
2022/04/20 09:13:10;;;;;;;5.10;4.70;;;;;;;9.66;49.74;96235.03;5029646;28;20432;-73
2022/04/20 09:15:40;;;;;;;5.90;5.40;;;;;;;9.76;48.70;96239.94;5050272;28;20515;-74
2022/04/20 09:18:10;;;;;;;5.63;5.13;;;;;;;9.87;47.59;96243.72;5050055;28;20464;-73
2022/04/20 09:20:40;;;;;;;6.40;5.10;;;;;;;9.97;47.90;96235.41;5033851;28;20818;-74
2022/04/20 09:23:10;;;;;;;7.63;5.57;;;;;;;9.86;48.21;96236.13;5053247;28;20960;-74
2022/04/20 09:25:49;;;;;;;4.77;4.40;;;;;;;10.21;48.43;96236.59;5053355;28;20448;-74
2022/04/20 09:28:15;;;;;;;4.90;4.50;;;;;;;10.13;48.16;96234.81;5052283;28;20420;-74
2022/04/20 09:30:43;;;;;;;6.83;6.13;;;;;;;10.29;47.34;96217.28;5033094;28;20477;-74
2022/04/20 09:33:10;;;;;;;5.37;4.87;;;;;;;10.38;48.49;96233.03;5033249;28;20442;-74
2022/04/20 09:35:46;;;;;;;5.93;5.43;;;;;;;9.86;49.56;96199.16;5033018;28;20432;-74
2022/04/20 09:38:17;;;;;;;4.43;4.13;;;;;;;9.84;46.29;96230.41;5032728;28;20503;-74
2022/04/20 09:40:44;;;;;;;4.97;4.50;;;;;;;9.78;46.71;96222.69;5033253;28;20427;-74
2022/04/20 09:43:15;;;;;;;5.40;4.73;;;;;;;10.03;47.01;96225.44;5034122;28;20431;-74
2022/04/20 09:45:42;;;;;;;5.33;4.90;;;;;;;10.18;48.92;96232.75;5032903;28;20479;-74
2022/04/20 09:51:11;;;;;;;5.10;4.60;;;;;;;9.87;46.38;96233.16;5048659;28;20454;-74
2022/04/20 09:53:40;;;;;;;5.00;4.60;;;;;;;10.59;46.90;96231.13;5052810;28;20535;-74
2022/04/20 09:56:19;;;;;;;5.47;5.03;;;;;;;10.58;47.19;96238.28;5035431;28;20477;-74
2022/04/20 09:58:47;;;;;;;5.50;5.00;;;;;;;10.32;46.38;96169.84;5032483;28;20521;-74
2022/04/20 10:01:25;;;;;;;6.13;5.63;;;;;;;10.91;45.52;96234.78;5032981;28;20414;-74
2022/04/20 10:03:55;;;;;;;7.43;4.57;;;;;;;11.07;45.59;96225.06;5047275;28;20443;-74
2022/04/20 10:06:22;;;;;;;5.93;5.30;;;;;;;11.00;45.67;96214.28;5036134;28;20464;-74
2022/04/20 10:08:50;;;;;;;4.60;4.00;;;;;;;10.39;44.68;96208.91;5020178;28;20527;-74
2022/04/20 10:11:17;;;;;;;5.10;4.60;;;;;;;10.88;46.62;96206.34;5032610;28;20483;-74
2022/04/20 10:16:05;;;;;;;4.30;4.00;;;;;;;11.43;44.48;96218.97;5033970;28;20807;-74
2022/04/20 10:16:37;;;;;;;5.10;4.60;;;;;;;11.18;44.02;96209.53;5046504;28;20471;-74
2022/04/20 10:19:06;;;;;;;4.20;3.90;;;;;;;11.13;42.97;96199.94;5019350;28;20483;-74
2022/04/20 10:21:43;;;;;;;5.67;5.20;;;;;;;11.08;42.08;96215.25;5033480;28;20524;-74
2022/04/20 10:24:15;;;;;;;4.80;4.40;;;;;;;10.84;43.45;96194.91;5032560;28;20788;-74
2022/04/20 10:26:43;;;;;;;4.60;4.30;;;;;;;11.20;43.99;96192.22;5032223;28;20473;-74
2022/04/20 10:29:17;;;;;;;5.03;4.63;;;;;;;11.28;43.00;96192.44;5033431;28;20532;-74
2022/04/20 10:31:53;;;;;;;5.60;4.40;;;;;;;11.64;44.42;96202.94;5019746;28;20443;-74
2022/04/20 10:34:21;;;;;;;7.40;3.70;;;;;;;11.11;42.10;96169.63;5035158;28;20439;-74
2022/04/20 10:37:19;;;;;;;4.07;3.67;;;;;;;11.68;41.12;96193.22;5038709;28;21022;-74
2022/04/20 10:40:17;;;;;;;4.67;4.27;;;;;;;12.31;40.88;96188.13;5052167;28;20474;-74
2022/04/20 10:43:21;;;;;;;5.50;4.30;;;;;;;11.94;40.94;96179.56;5051922;28;20867;-74
2022/04/20 10:46:20;;;;;;;5.00;4.50;;;;;;;11.38;41.16;96187.44;5038799;28;20432;-74
2022/04/20 10:49:02;;;;;;;5.20;4.80;;;;;;;11.76;40.63;96181.72;5022627;28;20462;-74
2022/04/20 10:51:29;;;;;;;4.97;4.57;;;;;;;11.73;39.91;96187.66;5032482;28;20457;-75
2022/04/20 10:54:18;;;;;;;6.07;5.03;;;;;;;11.90;40.54;96173.41;5032222;28;20563;-74
2022/04/20 10:57:10;;;;;;;3.67;3.37;;;;;;;11.95;39.15;96178.47;5016694;28;20532;-74
2022/04/20 10:59:39;;;;;;;6.97;4.33;;;;;;;11.89;39.11;96174.53;5031529;28;20552;-74
2022/04/20 11:02:08;;;;;;;4.53;4.17;;;;;;;11.65;37.89;96159.47;5028322;28;20448;-75
2022/04/20 11:04:46;;;;;;;8.17;4.07;;;;;;;11.97;38.09;96152.41;5035137;28;20437;-74
2022/04/20 11:07:23;;;;;;;5.30;4.70;;;;;;;12.30;37.29;96120.31;5029483;28;20432;-75
2022/04/20 11:09:57;;;;;;;3.90;3.60;;;;;;;13.48;35.86;96166.16;5022179;28;20992;-74
2022/04/20 11:21:23;;;;;;;3.67;3.37;;;;;;;13.24;38.41;96137.25;5032704;28;20423;-74
2022/04/20 11:23:59;;;;;;;5.60;3.70;;;;;;;12.91;36.56;96145.56;5034461;28;20440;-74
2022/04/20 11:26:39;;;;;;;4.23;3.80;;;;;;;12.65;37.50;96130.97;5039132;28;20816;-74
2022/04/20 11:29:12;;;;;;;4.53;4.13;;;;;;;12.47;37.50;96137.75;5034143;28;20861;-74
2022/04/20 11:31:42;;;;;;;4.57;4.17;;;;;;;12.83;36.43;96131.41;5045601;28;20445;-74
2022/04/20 11:34:10;;;;;;;3.63;3.30;;;;;;;12.43;36.10;96078.56;5058480;28;20462;-74
2022/04/20 11:36:40;;;;;;;3.50;3.20;;;;;;;13.14;33.69;96138.50;5048057;28;20523;-74
2022/04/20 11:39:09;;;;;;;3.20;3.00;;;;;;;12.57;33.48;96109.94;5031689;28;20484;-74
2022/04/20 11:41:36;;;;;;;3.67;3.33;;;;;;;12.98;33.33;96135.13;5014959;28;20452;-74
2022/04/20 11:44:03;;;;;;;3.57;3.27;;;;;;;12.63;31.83;96140.38;5032687;28;20437;-74
2022/04/20 11:46:34;;;;;;;3.23;2.93;;;;;;;12.54;31.20;96131.84;5031621;28;20468;-74
2022/04/20 11:49:02;;;;;;;3.27;3.00;;;;;;;12.69;31.69;96133.72;5030848;28;20460;-74
2022/04/20 11:51:37;;;;;;;2.87;2.63;;;;;;;12.85;31.12;96136.34;5030736;28;20441;-74
2022/04/20 11:54:04;;;;;;;4.07;3.40;;;;;;;13.60;31.37;96125.44;5031941;28;20465;-73
2022/04/20 11:56:40;;;;;;;3.70;3.50;;;;;;;13.64;31.72;96130.81;5030731;28;20433;-74
2022/04/20 11:59:08;;;;;;;4.60;4.20;;;;;;;13.26;32.07;96124.38;5030440;28;20849;-74
2022/04/20 12:01:38;;;;;;;6.53;4.03;;;;;;;13.77;32.74;96130.34;5032329;28;20432;-74
2022/04/20 12:04:16;;;;;;;3.80;3.50;;;;;;;13.73;31.56;96128.72;5031369;28;20447;-72
2022/04/20 12:06:54;;;;;;;4.30;3.90;;;;;;;14.38;32.13;96118.84;5030475;28;20441;-72
2022/04/20 12:09:31;;;;;;;4.80;4.40;;;;;;;13.87;32.19;96100.50;5014026;28;20474;-72
2022/04/20 12:12:01;;;;;;;5.07;4.50;;;;;;;13.87;32.05;96110.38;5040698;28;20466;-72
2022/04/20 12:14:34;;;;;;;5.03;3.73;;;;;;;13.35;32.51;96085.09;5017851;28;20996;-72
2022/04/20 12:17:06;;;;;;;4.40;4.10;;;;;;;12.98;33.90;96101.41;5030276;28;20938;-73
2022/04/20 12:19:40;;;;;;;5.27;4.77;;;;;;;13.36;34.73;96096.50;5030036;28;20472;-73
2022/04/20 12:22:08;;;;;;;4.57;4.27;;;;;;;14.03;33.80;96065.09;5030381;28;20438;-73
2022/04/20 12:24:35;;;;;;;4.20;3.90;;;;;;;13.15;32.97;96084.31;5030490;28;20542;-73
2022/04/20 12:27:02;;;;;;;3.77;3.47;;;;;;;13.53;31.55;96088.13;5031465;28;20770;-73
2022/04/20 12:29:34;;;;;;;3.57;3.27;;;;;;;13.41;32.59;96077.63;5030323;28;20515;-73
2022/04/20 12:32:01;;;;;;;3.67;3.40;;;;;;;13.39;31.82;96050.66;5050082;28;20452;-73